Time;durP1;ratioP1;P1;durP2;ratioP2;P2;SDS_P1;SDS_P2;PMS_P1;PMS_P2;Temp;Humidity;BMP_temperature;BMP_pressure;BME280_temperature;BME280_humidity;BME280_pressure;Samples;Min_cycle;Max_cycle;Signal;HPM_P1;HPM_P2
2022/11/12 00:03:58;;;;;;;;;;;6.20;99.90;;;;;;8413441;28;19971;-75
2022/11/12 00:08:00;;;;;;;;;;;6.20;99.90;;;;;;8416727;28;19928;-75
2022/11/12 00:12:01;;;;;;;;;;;6.20;99.90;;;;;;8401425;28;19924;-75
2022/11/12 00:16:04;;;;;;;;;;;6.10;99.90;;;;;;8402992;28;19928;-75
2022/11/12 00:20:06;;;;;;;;;;;6.10;99.90;;;;;;8414711;28;19924;-75
2022/11/12 00:24:08;;;;;;;;;;;6.00;99.90;;;;;;8403195;28;19928;-75
2022/11/12 00:28:10;;;;;;;;;;;6.00;99.90;;;;;;8415710;28;19924;-76
2022/11/12 00:42:07;;;;;;;;;;;5.80;99.90;;;;;;8416348;28;19974;-75
2022/11/12 00:46:09;;;;;;;;;;;5.80;99.90;;;;;;8419950;28;20404;-75
2022/11/12 00:50:11;;;;;;;;;;;5.70;99.90;;;;;;8424709;28;19971;-75
2022/11/12 00:54:12;;;;;;;;;;;5.70;99.90;;;;;;8397708;28;20023;-75
2022/11/12 00:58:14;;;;;;;;;;;5.70;99.90;;;;;;8425105;28;20391;-75
2022/11/12 01:02:16;;;;;;;;;;;5.70;99.90;;;;;;8420510;28;19924;-74
2022/11/12 01:06:19;;;;;;;;;;;5.70;99.90;;;;;;8415624;28;19930;-75
2022/11/12 01:10:21;;;;;;;;;;;5.60;99.90;;;;;;8423466;28;19930;-75
2022/11/12 01:14:22;;;;;;;;;;;5.60;99.90;;;;;;8416414;28;19931;-75
2022/11/12 01:18:24;;;;;;;;;;;5.60;99.90;;;;;;8417638;28;19924;-75
2022/11/12 01:22:26;;;;;;;;;;;5.60;99.90;;;;;;8407018;28;20416;-75
2022/11/12 01:36:42;;;;;;;;;;;5.60;99.90;;;;;;8393836;28;19923;-75
2022/11/12 01:40:44;;;;;;;;;;;5.60;99.90;;;;;;8398933;28;20015;-75
2022/11/12 01:44:46;;;;;;;;;;;5.60;99.90;;;;;;8420341;28;19977;-75
2022/11/12 01:48:49;;;;;;;;;;;5.70;99.90;;;;;;8403550;28;19928;-75
2022/11/12 01:52:54;;;;;;;;;;;5.70;99.90;;;;;;8420865;28;19939;-75
2022/11/12 01:56:56;;;;;;;;;;;5.80;99.90;;;;;;8414461;28;20435;-75
2022/11/12 02:00:59;;;;;;;;;;;5.80;99.90;;;;;;8399427;28;19935;-75
2022/11/12 02:05:03;;;;;;;;;;;5.80;99.90;;;;;;8420797;28;20322;-75
2022/11/12 02:09:04;;;;;;;;;;;5.80;99.90;;;;;;8415683;28;20460;-75
2022/11/12 02:17:27;;;;;;;;;;;5.60;99.90;;;;;;8424873;28;20023;-75
2022/11/12 02:21:29;;;;;;;;;;;5.60;99.90;;;;;;8421416;28;19946;-75
2022/11/12 02:25:31;;;;;;;;;;;5.50;99.90;;;;;;8428531;28;20371;-75
2022/11/12 02:29:33;;;;;;;;;;;5.50;99.90;;;;;;8414617;28;20383;-75
2022/11/12 02:38:37;;;;;;;;;;;5.50;99.90;;;;;;8415545;28;20376;-75
2022/11/12 02:42:39;;;;;;;;;;;5.50;99.90;;;;;;8420602;28;19924;-75
2022/11/12 02:46:40;;;;;;;;;;;5.40;99.90;;;;;;8430470;28;19950;-75
2022/11/12 02:50:42;;;;;;;;;;;5.50;99.90;;;;;;8415249;28;20339;-75
2022/11/12 02:54:44;;;;;;;;;;;5.50;99.90;;;;;;8414336;28;20636;-75
2022/11/12 02:58:45;;;;;;;;;;;5.50;99.90;;;;;;8416446;28;19968;-75
2022/11/12 03:02:57;;;;;;;;;;;5.40;99.90;;;;;;8390198;28;19931;-75
2022/11/12 03:06:59;;;;;;;;;;;5.40;99.90;;;;;;8420071;28;19924;-75
2022/11/12 03:11:05;;;;;;;;;;;5.50;99.90;;;;;;8401747;28;20337;-75
2022/11/12 03:15:06;;;;;;;;;;;5.40;99.90;;;;;;8417982;28;20076;-75
2022/11/12 03:19:08;;;;;;;;;;;5.50;99.90;;;;;;8395254;28;19935;-75
2022/11/12 03:23:10;;;;;;;;;;;5.40;99.90;;;;;;8415677;28;19924;-75
2022/11/12 03:27:11;;;;;;;;;;;5.40;99.90;;;;;;8406299;28;20278;-75
2022/11/12 03:31:13;;;;;;;;;;;5.40;99.90;;;;;;8409741;28;20401;-75
2022/11/12 03:35:15;;;;;;;;;;;5.40;99.90;;;;;;8422552;28;19930;-75
2022/11/12 03:39:16;;;;;;;;;;;5.40;99.90;;;;;;8432604;28;19923;-75
2022/11/12 03:43:18;;;;;;;;;;;5.40;99.90;;;;;;8424215;28;19935;-75
2022/11/12 03:47:19;;;;;;;;;;;5.30;99.90;;;;;;8428275;28;19930;-75
2022/11/12 03:51:21;;;;;;;;;;;5.30;99.90;;;;;;8416995;28;20291;-75
2022/11/12 03:55:24;;;;;;;;;;;5.30;99.90;;;;;;8412709;28;19928;-75
2022/11/12 03:59:25;;;;;;;;;;;5.20;99.90;;;;;;8407661;28;19942;-75
2022/11/12 04:03:27;;;;;;;;;;;5.20;99.90;;;;;;8403595;28;20295;-75
2022/11/12 04:22:16;;;;;;;;;;;5.10;99.90;;;;;;8407493;28;21198;-75
2022/11/12 04:31:20;;;;;;;;;;;5.00;99.90;;;;;;8402074;28;20047;-75
2022/11/12 04:35:23;;;;;;;;;;;5.00;99.90;;;;;;8422756;28;19932;-75
2022/11/12 04:39:25;;;;;;;;;;;5.00;99.90;;;;;;8424302;28;20351;-75
2022/11/12 04:47:47;;;;;;;;;;;4.90;99.90;;;;;;8427497;28;19930;-75
2022/11/12 04:52:03;;;;;;;;;;;4.80;99.90;;;;;;8392215;28;19947;-75
2022/11/12 04:56:05;;;;;;;;;;;4.80;99.90;;;;;;8412904;28;20453;-75
2022/11/12 05:00:07;;;;;;;;;;;4.80;99.90;;;;;;8417182;28;19968;-75
2022/11/12 05:04:09;;;;;;;;;;;4.80;99.90;;;;;;8404200;28;20290;-75
2022/11/12 05:08:10;;;;;;;;;;;4.70;99.90;;;;;;8413970;28;19924;-75
2022/11/12 05:12:12;;;;;;;;;;;4.70;99.90;;;;;;8411655;28;20015;-75
2022/11/12 05:16:14;;;;;;;;;;;4.60;99.90;;;;;;8389350;28;20327;-75
2022/11/12 05:20:15;;;;;;;;;;;4.60;99.90;;;;;;8419588;28;19930;-75
2022/11/12 05:24:17;;;;;;;;;;;4.60;99.90;;;;;;8391624;28;20258;-75
2022/11/12 05:28:39;;;;;;;;;;;4.60;99.90;;;;;;8417812;28;19924;-75
2022/11/12 05:32:40;;;;;;;;;;;4.50;99.90;;;;;;8404046;28;19939;-75
2022/11/12 05:36:42;;;;;;;;;;;4.50;99.90;;;;;;8402832;28;19995;-75
2022/11/12 05:40:44;;;;;;;;;;;4.50;99.90;;;;;;8415585;28;19931;-75
2022/11/12 05:44:45;;;;;;;;;;;4.50;99.90;;;;;;8417613;28;19946;-75
2022/11/12 05:48:47;;;;;;;;;;;4.50;99.90;;;;;;8419676;28;19930;-75
2022/11/12 05:52:48;;;;;;;;;;;4.50;99.90;;;;;;8395217;28;20015;-75
2022/11/12 05:56:51;;;;;;;;;;;4.40;99.90;;;;;;8407986;28;19950;-75
2022/11/12 06:00:53;;;;;;;;;;;4.40;99.90;;;;;;8411842;28;19924;-75
2022/11/12 06:04:54;;;;;;;;;;;4.40;99.90;;;;;;8409854;28;20255;-75
2022/11/12 06:19:04;;;;;;;;;;;4.30;99.90;;;;;;8413278;28;19923;-75
2022/11/12 06:23:05;;;;;;;;;;;4.30;99.90;;;;;;8411702;28;19931;-75
2022/11/12 06:27:07;;;;;;;;;;;4.40;99.90;;;;;;8406520;28;19928;-75
2022/11/12 06:31:09;;;;;;;;;;;4.40;99.90;;;;;;8413286;28;19932;-75
2022/11/12 06:35:10;;;;;;;;;;;4.50;99.90;;;;;;8422926;28;19928;-75
2022/11/12 06:39:12;;;;;;;;;;;4.50;99.90;;;;;;8423294;28;20295;-75
2022/11/12 06:43:13;;;;;;;;;;;4.60;99.90;;;;;;8416552;28;19928;-75
2022/11/12 06:47:15;;;;;;;;;;;4.50;99.90;;;;;;8424403;28;19964;-75
2022/11/12 06:51:18;;;;;;;;;;;4.60;99.90;;;;;;8424373;28;20272;-75
2022/11/12 06:55:19;;;;;;;;;;;4.60;99.90;;;;;;8432374;28;19963;-75
2022/11/12 06:59:21;;;;;;;;;;;4.60;99.90;;;;;;8421549;28;20027;-75
2022/11/12 07:03:23;;;;;;;;;;;4.60;99.90;;;;;;8390583;28;20306;-75
2022/11/12 07:07:24;;;;;;;;;;;4.60;99.90;;;;;;8427549;28;19928;-75
2022/11/12 07:11:26;;;;;;;;;;;4.60;99.90;;;;;;8429790;28;20003;-75
2022/11/12 07:15:28;;;;;;;;;;;4.60;99.90;;;;;;8407954;28;19924;-75
2022/11/12 07:19:29;;;;;;;;;;;4.60;99.90;;;;;;8391095;28;20021;-75
2022/11/12 07:23:32;;;;;;;;;;;4.60;99.90;;;;;;8417914;28;19928;-75
2022/11/12 07:27:34;;;;;;;;;;;4.70;99.90;;;;;;8435793;28;19940;-75
2022/11/12 07:31:35;;;;;;;;;;;4.70;99.90;;;;;;8418317;28;19925;-75
2022/11/12 07:35:37;;;;;;;;;;;4.80;99.90;;;;;;8394282;28;20438;-75
2022/11/12 07:39:38;;;;;;;;;;;4.90;99.90;;;;;;8426603;28;19930;-75
2022/11/12 07:43:41;;;;;;;;;;;4.90;99.90;;;;;;8417502;28;19928;-75
2022/11/12 07:47:42;;;;;;;;;;;5.00;99.90;;;;;;8416481;28;19928;-75
2022/11/12 07:51:44;;;;;;;;;;;5.10;99.90;;;;;;8415482;28;19954;-75
2022/11/12 07:55:55;;;;;;;;;;;5.20;99.90;;;;;;8397312;28;19941;-75
2022/11/12 07:59:57;;;;;;;;;;;5.20;99.90;;;;;;8389152;28;20023;-75
2022/11/12 08:03:59;;;;;;;;;;;5.30;99.90;;;;;;8417280;28;20015;-75
2022/11/12 08:08:01;;;;;;;;;;;5.40;99.90;;;;;;8411287;28;20051;-75
2022/11/12 08:12:03;;;;;;;;;;;5.50;99.90;;;;;;8417744;28;19924;-75
2022/11/12 08:16:05;;;;;;;;;;;5.60;99.90;;;;;;8414038;28;19983;-75
2022/11/12 08:20:06;;;;;;;;;;;5.70;99.90;;;;;;8407379;28;21236;-75
2022/11/12 08:24:08;;;;;;;;;;;5.90;99.90;;;;;;8412642;28;20027;-75
2022/11/12 08:28:10;;;;;;;;;;;6.00;99.90;;;;;;8422089;28;20354;-75
2022/11/12 08:32:11;;;;;;;;;;;6.20;99.90;;;;;;8418041;28;19924;-75
2022/11/12 08:36:14;;;;;;;;;;;6.40;99.90;;;;;;8409926;28;19964;-75
2022/11/12 08:40:16;;;;;;;;;;;6.60;99.90;;;;;;8412357;28;19971;-75
2022/11/12 08:44:17;;;;;;;;;;;6.80;99.90;;;;;;8410938;28;20287;-75
2022/11/12 08:48:20;;;;;;;;;;;7.00;99.90;;;;;;8414431;28;20372;-75
2022/11/12 08:52:21;;;;;;;;;;;7.20;99.90;;;;;;8415719;28;19943;-75
2022/11/12 08:56:23;;;;;;;;;;;7.40;99.90;;;;;;8408487;28;19928;-75
2022/11/12 09:00:24;;;;;;;;;;;7.70;99.90;;;;;;8394451;28;20333;-75
2022/11/12 09:04:26;;;;;;;;;;;8.10;99.90;;;;;;8419937;28;20278;-75
2022/11/12 09:08:28;;;;;;;;;;;8.60;99.90;;;;;;8410126;28;20259;-75
2022/11/12 09:12:30;;;;;;;;;;;9.10;99.90;;;;;;8431639;28;19924;-75
2022/11/12 09:16:31;;;;;;;;;;;9.50;99.90;;;;;;8419317;28;19938;-75
2022/11/12 09:20:33;;;;;;;;;;;9.70;99.90;;;;;;8430219;28;20027;-75
2022/11/12 09:24:35;;;;;;;;;;;9.70;99.90;;;;;;8430141;28;19936;-75
2022/11/12 09:28:36;;;;;;;;;;;9.70;99.90;;;;;;8423460;28;19932;-75
2022/11/12 09:32:38;;;;;;;;;;;9.60;99.90;;;;;;8430133;28;19925;-75
2022/11/12 09:36:39;;;;;;;;;;;9.60;99.90;;;;;;8427572;28;19924;-75
2022/11/12 09:40:50;;;;;;;;;;;9.60;99.90;;;;;;8423973;28;19924;-75
2022/11/12 09:44:59;;;;;;;;;;;9.70;99.90;;;;;;8409742;28;19987;-75
2022/11/12 09:49:06;;;;;;;;;;;9.80;99.90;;;;;;8429859;28;19931;-75
2022/11/12 09:53:15;;;;;;;;;;;9.90;99.90;;;;;;8430388;28;19938;-75
2022/11/12 09:57:16;;;;;;;;;;;10.00;99.90;;;;;;8430196;28;19924;-75
2022/11/12 10:01:22;;;;;;;;;;;10.30;99.90;;;;;;8430542;28;20430;-75
2022/11/12 10:05:43;;;;;;;;;;;10.50;99.90;;;;;;8423048;28;19925;-75
2022/11/12 10:19:55;;;;;;;;;;;11.50;99.90;;;;;;8416581;28;20401;-75
2022/11/12 10:23:57;;;;;;;;;;;12.10;99.90;;;;;;8420098;28;19924;-75
2022/11/12 10:28:00;;;;;;;;;;;12.60;99.90;;;;;;8394300;28;19925;-75
2022/11/12 10:32:02;;;;;;;;;;;13.20;99.90;;;;;;8424583;28;19934;-75
2022/11/12 10:36:22;;;;;;;;;;;13.80;99.90;;;;;;8411323;28;19924;-75
2022/11/12 10:40:34;;;;;;;;;;;14.30;99.90;;;;;;8399598;28;19928;-75
2022/11/12 10:44:36;;;;;;;;;;;14.90;99.90;;;;;;8412458;28;19924;-75
2022/11/12 10:48:38;;;;;;;;;;;15.40;99.90;;;;;;8412100;28;20260;-75
2022/11/12 10:52:51;;;;;;;;;;;15.90;99.90;;;;;;8407390;28;20007;-75
2022/11/12 10:56:53;;;;;;;;;;;16.20;99.90;;;;;;8372760;28;19948;-75
2022/11/12 11:01:00;;;;;;;;;;;16.40;99.90;;;;;;8390422;28;19982;-73
2022/11/12 11:05:20;;;;;;;;;;;16.60;99.90;;;;;;8394133;28;19924;-73
2022/11/12 11:09:24;;;;;;;;;;;17.00;99.90;;;;;;8391330;28;19928;-73
2022/11/12 11:13:26;;;;;;;;;;;17.40;99.90;;;;;;8372288;28;19932;-73
2022/11/12 11:17:28;;;;;;;;;;;18.00;99.90;;;;;;8393081;28;20436;-73
2022/11/12 11:21:48;;;;;;;;;;;18.60;99.90;;;;;;8390769;28;19939;-73
2022/11/12 11:25:52;;;;;;;;;;;19.20;99.90;;;;;;8391370;28;19932;-74
2022/11/12 11:29:54;;;;;;;;;;;19.90;99.90;;;;;;8388049;28;19931;-73
2022/11/12 11:34:14;;;;;;;;;;;20.40;99.90;;;;;;8385563;28;19954;-73
2022/11/12 11:38:29;;;;;;;;;;;21.00;99.90;;;;;;8386683;28;19943;-73
2022/11/12 11:42:30;;;;;;;;;;;21.50;99.90;;;;;;8396285;28;19950;-74
2022/11/12 11:46:42;;;;;;;;;;;22.20;99.90;;;;;;8395274;28;20060;-74
2022/11/12 11:51:03;;;;;;;;;;;22.60;99.90;;;;;;8382156;28;19932;-73
2022/11/12 11:55:17;;;;;;;;;;;22.30;99.90;;;;;;8393914;28;19928;-73
2022/11/12 11:59:48;;;;;;;;;;;21.80;99.90;;;;;;8389669;28;19942;-74
2022/11/12 12:04:08;;;;;;;;;;;21.10;99.90;;;;;;8370197;28;19932;-73
2022/11/12 12:08:10;;;;;;;;;;;20.70;99.90;;;;;;8387833;28;19952;-74
2022/11/12 12:12:35;;;;;;;;;;;20.40;99.90;;;;;;8395748;28;19947;-73
2022/11/12 12:16:36;;;;;;;;;;;20.50;99.90;;;;;;8385962;28;19931;-74
2022/11/12 12:20:43;;;;;;;;;;;20.60;99.90;;;;;;8389474;28;19957;-73
2022/11/12 12:24:48;;;;;;;;;;;20.50;99.90;;;;;;8388836;28;19963;-73
2022/11/12 12:28:54;;;;;;;;;;;20.20;99.90;;;;;;8391409;28;21326;-73
2022/11/12 12:33:01;;;;;;;;;;;19.80;99.90;;;;;;8386591;28;19932;-74
2022/11/12 12:37:09;;;;;;;;;;;19.60;99.90;;;;;;8389700;28;20353;-75
2022/11/12 12:41:26;;;;;;;;;;;19.70;99.90;;;;;;8399257;28;19932;-73
2022/11/12 12:45:31;;;;;;;;;;;20.20;99.90;;;;;;8407748;28;19978;-74
2022/11/12 12:49:37;;;;;;;;;;;21.20;99.90;;;;;;8371929;28;19950;-74
2022/11/12 12:53:39;;;;;;;;;;;22.10;99.90;;;;;;8390671;28;20455;-74
2022/11/12 12:57:41;;;;;;;;;;;22.70;99.90;;;;;;8384160;28;19930;-74
2022/11/12 13:01:42;;;;;;;;;;;23.40;99.90;;;;;;8381008;28;19928;-74
2022/11/12 13:05:44;;;;;;;;;;;23.80;99.90;;;;;;8389472;28;19928;-73
2022/11/12 13:09:45;;;;;;;;;;;23.30;99.90;;;;;;8378906;28;19924;-74
2022/11/12 13:13:47;;;;;;;;;;;22.50;99.90;;;;;;8389184;28;20182;-74
2022/11/12 13:17:49;;;;;;;;;;;21.70;99.90;;;;;;8389329;28;19936;-74
2022/11/12 13:22:11;;;;;;;;;;;21.20;99.90;;;;;;8379547;28;20167;-73
2022/11/12 13:26:33;;;;;;;;;;;20.70;99.90;;;;;;8396548;28;19939;-74
2022/11/12 13:30:34;;;;;;;;;;;20.40;99.90;;;;;;8381848;28;20019;-74
2022/11/12 13:34:36;;;;;;;;;;;20.10;99.90;;;;;;8386753;28;19935;-74
2022/11/12 13:38:38;;;;;;;;;;;19.80;99.90;;;;;;8386948;28;20825;-73
2022/11/12 13:42:48;;;;;;;;;;;19.70;99.90;;;;;;8402678;28;20019;-73
2022/11/12 13:46:51;;;;;;;;;;;19.60;99.90;;;;;;8396367;28;19931;-74
2022/11/12 13:50:56;;;;;;;;;;;19.40;99.90;;;;;;8391774;28;20022;-74
2022/11/12 13:55:02;;;;;;;;;;;19.30;99.90;;;;;;8393817;28;20007;-74
2022/11/12 13:59:13;;;;;;;;;;;19.10;99.90;;;;;;8399027;28;20014;-74
2022/11/12 14:03:16;;;;;;;;;;;19.10;99.90;;;;;;8393726;28;19932;-74
2022/11/12 14:07:23;;;;;;;;;;;19.10;99.90;;;;;;8395828;28;20423;-74
2022/11/12 14:11:49;;;;;;;;;;;19.00;99.90;;;;;;8384600;28;19931;-73
2022/11/12 14:15:50;;;;;;;;;;;18.90;99.90;;;;;;8417294;28;19928;-74
2022/11/12 14:20:11;;;;;;;;;;;18.90;99.90;;;;;;8397410;28;19950;-74
2022/11/12 14:24:12;;;;;;;;;;;19.20;99.90;;;;;;8396587;28;20406;-74
2022/11/12 14:28:23;;;;;;;;;;;20.10;99.90;;;;;;8398388;28;19935;-74
2022/11/12 14:32:25;;;;;;;;;;;21.30;99.90;;;;;;8373444;28;20291;-74
2022/11/12 14:36:29;;;;;;;;;;;22.60;99.90;;;;;;8398850;28;19938;-73
2022/11/12 14:40:32;;;;;;;;;;;23.60;99.90;;;;;;8396250;28;20354;-73
2022/11/12 14:44:34;;;;;;;;;;;24.20;99.90;;;;;;8390682;28;19932;-74
2022/11/12 14:48:45;;;;;;;;;;;24.40;99.90;;;;;;8395432;28;20043;-74
2022/11/12 14:52:50;;;;;;;;;;;24.20;99.90;;;;;;8379147;28;19938;-74
2022/11/12 14:56:52;;;;;;;;;;;23.80;99.90;;;;;;8403544;28;20015;-74
2022/11/12 15:00:54;;;;;;;;;;;23.80;99.90;;;;;;8390480;28;20272;-74
2022/11/12 15:05:00;;;;;;;;;;;23.80;99.90;;;;;;8390448;28;20007;-74
2022/11/12 15:09:02;;;;;;;;;;;23.60;99.90;;;;;;8407552;28;20454;-74
2022/11/12 15:13:06;;;;;;;;;;;23.10;99.90;;;;;;8397136;28;19928;-73
2022/11/12 15:17:21;;;;;;;;;;;22.20;99.90;;;;;;8400334;28;19928;-74
2022/11/12 15:21:27;;;;;;;;;;;21.50;99.90;;;;;;8397905;28;20295;-74
2022/11/12 15:25:29;;;;;;;;;;;21.00;99.90;;;;;;8397102;28;19928;-74
2022/11/12 15:29:32;;;;;;;;;;;20.80;99.90;;;;;;8402899;28;20019;-74
2022/11/12 15:33:34;;;;;;;;;;;20.50;99.90;;;;;;8393669;28;19937;-74
2022/11/12 15:37:41;;;;;;;;;;;20.10;99.90;;;;;;8381083;28;19932;-74
2022/11/12 15:41:42;;;;;;;;;;;19.80;99.90;;;;;;8407666;28;19930;-74
2022/11/12 15:45:48;;;;;;;;;;;19.30;99.90;;;;;;8411162;28;19934;-74
2022/11/12 15:49:51;;;;;;;;;;;18.90;99.90;;;;;;8403887;28;19923;-74
2022/11/12 15:53:53;;;;;;;;;;;18.40;99.90;;;;;;8376571;28;19954;-74
2022/11/12 15:57:54;;;;;;;;;;;18.00;99.90;;;;;;8390027;28;19929;-74
2022/11/12 16:01:56;;;;;;;;;;;17.60;99.90;;;;;;8384230;28;19935;-74
2022/11/12 16:05:58;;;;;;;;;;;17.30;99.90;;;;;;8377405;28;19927;-74
2022/11/12 16:10:03;;;;;;;;;;;17.10;99.90;;;;;;8395921;28;19929;-74
2022/11/12 16:14:06;;;;;;;;;;;16.90;99.90;;;;;;8373010;28;20016;-74
2022/11/12 16:18:08;;;;;;;;;;;16.70;99.90;;;;;;8388078;28;19931;-74
2022/11/12 16:22:13;;;;;;;;;;;16.60;99.90;;;;;;8385962;28;19928;-74
2022/11/12 16:26:17;;;;;;;;;;;16.50;99.90;;;;;;8390030;28;20559;-74
2022/11/12 16:30:20;;;;;;;;;;;16.30;99.90;;;;;;8370946;28;19931;-74
2022/11/12 16:34:22;;;;;;;;;;;16.20;99.90;;;;;;8388955;28;19939;-74
2022/11/12 16:38:24;;;;;;;;;;;16.00;99.90;;;;;;8388975;28;20011;-73
2022/11/12 16:42:26;;;;;;;;;;;15.80;99.90;;;;;;8393934;28;19947;-73
2022/11/12 16:46:29;;;;;;;;;;;15.70;99.90;;;;;;8392719;28;19924;-74
2022/11/12 16:50:30;;;;;;;;;;;15.60;99.90;;;;;;8395424;28;20023;-73
2022/11/12 16:54:32;;;;;;;;;;;15.50;99.90;;;;;;8386626;28;20011;-74
2022/11/12 16:58:34;;;;;;;;;;;15.30;99.90;;;;;;8400973;28;19924;-73
2022/11/12 17:02:36;;;;;;;;;;;15.20;99.90;;;;;;8399923;28;20019;-74
2022/11/12 17:06:44;;;;;;;;;;;15.10;99.90;;;;;;8392903;28;20647;-74
2022/11/12 17:10:45;;;;;;;;;;;15.00;99.90;;;;;;8382355;28;19932;-74
2022/11/12 17:14:47;;;;;;;;;;;14.90;99.90;;;;;;8384583;28;19932;-74
2022/11/12 17:18:51;;;;;;;;;;;14.70;99.90;;;;;;8391842;28;19932;-74
2022/11/12 17:22:53;;;;;;;;;;;14.50;99.90;;;;;;8389318;28;19924;-74
2022/11/12 17:26:54;;;;;;;;;;;14.40;99.90;;;;;;8393692;28;19932;-74
2022/11/12 17:31:04;;;;;;;;;;;14.40;99.90;;;;;;8389632;28;19934;-74
2022/11/12 17:35:05;;;;;;;;;;;14.30;99.90;;;;;;8391000;28;20359;-74
2022/11/12 17:39:11;;;;;;;;;;;14.30;99.90;;;;;;8384350;28;20352;-74
2022/11/12 17:43:13;;;;;;;;;;;14.20;99.90;;;;;;8392686;28;19987;-74
2022/11/12 17:47:14;;;;;;;;;;;14.10;99.90;;;;;;8395284;28;19938;-74
2022/11/12 17:51:18;;;;;;;;;;;14.10;99.90;;;;;;8370100;28;20346;-74
2022/11/12 17:55:19;;;;;;;;;;;14.10;99.90;;;;;;8384875;28;19963;-74
2022/11/12 17:59:21;;;;;;;;;;;14.00;99.90;;;;;;8397143;28;19924;-74
2022/11/12 18:03:23;;;;;;;;;;;13.90;99.90;;;;;;8399382;28;20576;-74
2022/11/12 18:07:25;;;;;;;;;;;13.90;99.90;;;;;;8391423;28;20353;-74
2022/11/12 18:11:27;;;;;;;;;;;13.80;99.90;;;;;;8381729;28;19924;-74
2022/11/12 18:15:29;;;;;;;;;;;13.80;99.90;;;;;;8392880;28;19924;-73
2022/11/12 18:19:31;;;;;;;;;;;13.70;99.90;;;;;;8394227;28;20387;-74
2022/11/12 18:23:35;;;;;;;;;;;13.70;99.90;;;;;;8414137;28;19931;-74
2022/11/12 18:27:36;;;;;;;;;;;13.60;99.90;;;;;;8393882;28;19924;-73
2022/11/12 18:31:39;;;;;;;;;;;13.60;99.90;;;;;;8400477;28;19932;-74
2022/11/12 18:35:41;;;;;;;;;;;13.50;99.90;;;;;;8405174;28;19961;-74
2022/11/12 18:39:42;;;;;;;;;;;13.50;99.90;;;;;;8398828;28;19947;-74
2022/11/12 18:43:44;;;;;;;;;;;13.30;99.90;;;;;;8396514;28;20042;-74
2022/11/12 18:47:45;;;;;;;;;;;13.30;99.90;;;;;;8392134;28;19935;-73
2022/11/12 18:51:47;;;;;;;;;;;13.10;99.90;;;;;;8397300;28;20002;-73
2022/11/12 18:55:49;;;;;;;;;;;13.00;99.90;;;;;;8392890;28;20016;-74
2022/11/12 18:59:53;;;;;;;;;;;12.90;99.90;;;;;;8392836;28;20022;-74
2022/11/12 19:19:04;;;;;;;;;;;12.30;99.90;;;;;;8381470;28;19922;-76
2022/11/12 19:23:06;;;;;;;;;;;12.20;99.90;;;;;;8391673;28;19924;-76
2022/11/12 19:27:09;;;;;;;;;;;12.20;99.90;;;;;;8399357;28;19959;-75
2022/11/12 19:31:12;;;;;;;;;;;12.10;99.90;;;;;;8372053;28;20022;-76
2022/11/12 19:35:14;;;;;;;;;;;12.00;99.90;;;;;;8396877;28;20028;-75
2022/11/12 19:39:16;;;;;;;;;;;11.90;99.90;;;;;;8402354;28;19928;-76
2022/11/12 19:43:18;;;;;;;;;;;11.80;99.90;;;;;;8387279;28;19932;-76
2022/11/12 19:47:20;;;;;;;;;;;11.70;99.90;;;;;;8391128;28;19924;-75
2022/11/12 19:51:23;;;;;;;;;;;11.70;99.90;;;;;;8375260;28;20402;-75
2022/11/12 19:55:27;;;;;;;;;;;11.70;99.90;;;;;;8392700;28;19932;-76
2022/11/12 19:59:28;;;;;;;;;;;11.70;99.90;;;;;;8393328;28;20016;-76
2022/11/12 20:03:32;;;;;;;;;;;11.60;99.90;;;;;;8368996;28;19931;-76
2022/11/12 20:07:33;;;;;;;;;;;11.60;99.90;;;;;;8389123;28;20291;-76
2022/11/12 20:11:35;;;;;;;;;;;11.70;99.90;;;;;;8388784;28;20016;-76
2022/11/12 20:15:37;;;;;;;;;;;11.70;99.90;;;;;;8385966;28;20027;-75
2022/11/12 20:19:38;;;;;;;;;;;11.70;99.90;;;;;;8391062;28;20344;-76
2022/11/12 20:23:44;;;;;;;;;;;11.70;99.90;;;;;;8381244;28;20244;-75
2022/11/12 20:27:45;;;;;;;;;;;11.60;99.90;;;;;;8373281;28;19936;-76
2022/11/12 20:31:47;;;;;;;;;;;11.50;99.90;;;;;;8395253;28;19932;-76
2022/11/12 20:35:49;;;;;;;;;;;11.40;99.90;;;;;;8368403;28;19936;-75
2022/11/12 20:39:51;;;;;;;;;;;11.30;99.90;;;;;;8390528;28;19925;-76
2022/11/12 20:43:54;;;;;;;;;;;11.30;99.90;;;;;;8383722;28;19935;-76
2022/11/12 20:47:55;;;;;;;;;;;11.10;99.90;;;;;;8392505;28;19931;-75
2022/11/12 20:51:57;;;;;;;;;;;11.00;99.90;;;;;;8375318;28;19938;-75
2022/11/12 20:56:03;;;;;;;;;;;10.90;99.90;;;;;;8390124;28;19937;-76
2022/11/12 21:00:05;;;;;;;;;;;10.80;99.90;;;;;;8385121;28;19931;-75
2022/11/12 21:04:06;;;;;;;;;;;10.70;99.90;;;;;;8391838;28;20355;-76
2022/11/12 21:08:08;;;;;;;;;;;10.80;99.90;;;;;;8393043;28;19938;-76
2022/11/12 21:12:09;;;;;;;;;;;10.80;99.90;;;;;;8399079;28;20007;-76
2022/11/12 21:16:12;;;;;;;;;;;10.90;99.90;;;;;;8379171;28;19924;-75
2022/11/12 21:20:13;;;;;;;;;;;10.90;99.90;;;;;;8384515;28;20014;-75
2022/11/12 21:34:21;;;;;;;;;;;11.10;99.90;;;;;;8393817;28;19927;-75
2022/11/12 21:38:23;;;;;;;;;;;11.10;99.90;;;;;;8392107;28;19928;-76
2022/11/12 21:42:25;;;;;;;;;;;11.10;99.90;;;;;;8395990;28;20030;-75
2022/11/12 21:46:27;;;;;;;;;;;11.10;99.90;;;;;;8404636;28;20027;-75
2022/11/12 21:50:29;;;;;;;;;;;11.00;99.90;;;;;;8377990;28;19925;-76
2022/11/12 21:54:30;;;;;;;;;;;11.00;99.90;;;;;;8387816;28;19924;-75
2022/11/12 21:58:32;;;;;;;;;;;10.90;99.90;;;;;;8386976;28;19932;-75
2022/11/12 22:02:34;;;;;;;;;;;10.80;99.90;;;;;;8391067;28;19935;-75
2022/11/12 22:06:37;;;;;;;;;;;10.70;99.90;;;;;;8412797;28;19939;-75
2022/11/12 22:10:38;;;;;;;;;;;10.60;99.90;;;;;;8415598;28;19931;-76
2022/11/12 22:14:40;;;;;;;;;;;10.50;99.90;;;;;;8412528;28;19938;-75
2022/11/12 22:18:42;;;;;;;;;;;10.40;99.90;;;;;;8422259;28;19924;-75
2022/11/12 22:22:44;;;;;;;;;;;10.40;99.90;;;;;;8397706;28;19924;-75
2022/11/12 22:26:45;;;;;;;;;;;10.30;99.90;;;;;;8413731;28;19932;-75
2022/11/12 22:30:47;;;;;;;;;;;10.20;99.90;;;;;;8411611;28;19939;-75
2022/11/12 22:34:49;;;;;;;;;;;10.10;99.90;;;;;;8427605;28;19932;-75
2022/11/12 22:38:51;;;;;;;;;;;10.00;99.90;;;;;;8396340;28;19932;-75
2022/11/12 22:42:53;;;;;;;;;;;10.00;99.90;;;;;;8419296;28;20299;-75
2022/11/12 22:46:55;;;;;;;;;;;9.90;99.90;;;;;;8417042;28;19924;-75
2022/11/12 22:50:57;;;;;;;;;;;9.80;99.90;;;;;;8420469;28;19934;-75
2022/11/12 22:54:59;;;;;;;;;;;9.70;99.90;;;;;;8414878;28;19924;-75
2022/11/12 22:59:03;;;;;;;;;;;9.70;99.90;;;;;;8416350;28;20384;-75
2022/11/12 23:03:05;;;;;;;;;;;9.60;99.90;;;;;;8400178;28;20419;-75
2022/11/12 23:07:07;;;;;;;;;;;9.60;99.90;;;;;;8406971;28;21581;-76
2022/11/12 23:11:09;;;;;;;;;;;9.50;99.90;;;;;;8431467;28;20015;-76
2022/11/12 23:15:11;;;;;;;;;;;9.50;99.90;;;;;;8418312;28;19982;-75
2022/11/12 23:19:13;;;;;;;;;;;9.40;99.90;;;;;;8416216;28;19928;-75
2022/11/12 23:23:14;;;;;;;;;;;9.40;99.90;;;;;;8410491;28;21085;-75
2022/11/12 23:27:16;;;;;;;;;;;9.30;99.90;;;;;;8414275;28;19928;-75
2022/11/12 23:31:19;;;;;;;;;;;9.30;99.90;;;;;;8394669;28;19932;-75
2022/11/12 23:35:21;;;;;;;;;;;9.20;99.90;;;;;;8425377;28;19923;-76
2022/11/12 23:39:22;;;;;;;;;;;9.10;99.90;;;;;;8419870;28;19946;-75
2022/11/12 23:43:24;;;;;;;;;;;9.10;99.90;;;;;;8414373;28;19923;-76
2022/11/12 23:47:25;;;;;;;;;;;9.00;99.90;;;;;;8421713;28;19924;-75
2022/11/12 23:56:30;;;;;;;;;;;8.90;99.90;;;;;;8413533;28;19973;-75
